createdAt,value
2022-08-05T00:01:20.960Z,70.63
2022-08-05T00:04:14.112Z,70.30
2022-08-05T00:06:59.575Z,70.35
2022-08-05T00:09:45.396Z,70.36
2022-08-05T00:12:31.398Z,70.53
2022-08-05T00:15:54.082Z,70.83
2022-08-05T00:18:22.893Z,70.83
2022-08-05T00:21:09.295Z,70.98
2022-08-05T00:24:10.723Z,71.32
2022-08-05T00:26:56.976Z,70.97
2022-08-05T00:29:45.084Z,70.87
2022-08-05T00:32:30.937Z,70.98
2022-08-05T00:35:17.035Z,71.07
2022-08-05T00:38:06.467Z,70.95
2022-08-05T00:40:57.144Z,70.42
2022-08-05T00:43:47.143Z,70.20
2022-08-05T00:46:42.610Z,70.58
2022-08-05T00:49:32.406Z,70.20
2022-08-05T00:52:28.222Z,70.38
2022-08-05T00:55:14.931Z,70.85
2022-08-05T00:58:01.021Z,71.01
2022-08-05T01:00:47.882Z,71.32
2022-08-05T01:03:37.929Z,71.05
2022-08-05T01:06:28.920Z,70.31
2022-08-05T01:09:20.047Z,69.70
2022-08-05T01:12:18.867Z,69.62
2022-08-05T01:15:36.275Z,69.69
2022-08-05T01:18:21.132Z,69.94
2022-08-05T01:21:38.107Z,70.40
2022-08-05T01:24:45.027Z,70.19
2022-08-05T01:27:55.042Z,70.12
2022-08-05T01:30:55.174Z,69.94
2022-08-05T01:34:00.956Z,69.87
2022-08-05T01:36:53.849Z,70.15
2022-08-05T01:39:47.543Z,70.15
2022-08-05T01:42:36.678Z,70.21
2022-08-05T01:45:24.985Z,70.36
2022-08-05T01:48:11.777Z,70.71
2022-08-05T01:51:00.124Z,70.73
2022-08-05T01:54:02.187Z,70.71
2022-08-05T01:58:10.630Z,70.87
2022-08-05T02:00:01.036Z,70.89
2022-08-05T02:02:58.083Z,71.46
2022-08-05T02:05:45.798Z,71.87
2022-08-05T02:08:40.865Z,71.83
2022-08-05T02:12:17.783Z,71.48
2022-08-05T02:15:19.562Z,70.96
2022-08-05T02:18:32.236Z,71.04
2022-08-05T02:21:31.775Z,70.86
2022-08-05T02:24:37.011Z,70.98
2022-08-05T02:27:30.226Z,71.37
2022-08-05T02:30:51.557Z,71.47
2022-08-05T02:33:45.103Z,71.80
2022-08-05T02:36:36.963Z,71.58
2022-08-05T02:39:25.393Z,71.94
2022-08-05T02:42:22.527Z,71.73
2022-08-05T02:45:16.465Z,71.74
2022-08-05T02:48:12.024Z,71.66
2022-08-05T02:51:01.083Z,71.80
2022-08-05T02:53:48.662Z,71.82
2022-08-05T02:56:43.551Z,71.49
2022-08-05T02:59:47.794Z,71.47
2022-08-05T03:02:44.302Z,71.35
2022-08-05T03:06:55.155Z,71.38
2022-08-05T03:08:42.743Z,71.43
2022-08-05T03:11:56.411Z,71.50
2022-08-05T03:14:35.497Z,71.65
2022-08-05T03:17:32.440Z,71.64
2022-08-05T03:20:27.217Z,71.92
2022-08-05T03:23:13.826Z,71.86
2022-08-05T03:26:04.761Z,71.88
2022-08-05T03:29:05.687Z,72.15
2022-08-05T03:32:00.455Z,72.30
2022-08-05T03:34:50.467Z,72.50
2022-08-05T03:37:44.689Z,72.93
2022-08-05T03:40:32.841Z,73.05
2022-08-05T03:44:09.598Z,73.03
2022-08-05T03:46:26.758Z,72.75
2022-08-05T03:49:15.922Z,72.85
2022-08-05T03:52:37.149Z,72.82
2022-08-05T03:56:05.809Z,73.03
2022-08-05T03:58:28.900Z,73.27
2022-08-05T04:01:20.734Z,73.70
2022-08-05T04:04:10.155Z,73.72
2022-08-05T04:06:58.020Z,74.15
2022-08-05T04:09:53.065Z,74.23
2022-08-05T04:15:24.722Z,74.46
2022-08-05T04:18:12.717Z,74.68
2022-08-05T04:21:07.754Z,74.89
2022-08-05T04:24:06.666Z,75.05
2022-08-05T04:26:52.675Z,75.46
2022-08-05T04:29:39.095Z,75.83
2022-08-05T04:32:31.008Z,75.88
2022-08-05T04:35:19.821Z,76.48
2022-08-05T04:38:06.901Z,76.87
2022-08-05T04:40:53.703Z,77.00
2022-08-05T04:43:46.639Z,77.10
2022-08-05T04:46:42.024Z,77.47
2022-08-05T04:49:38.499Z,77.44
2022-08-05T04:52:40.553Z,77.65
2022-08-05T04:56:14.429Z,77.76
2022-08-05T04:58:34.203Z,77.49
2022-08-05T05:02:06.139Z,76.50
2022-08-05T05:04:35.067Z,75.86
2022-08-05T05:07:29.765Z,74.94
2022-08-05T05:10:19.088Z,73.99
2022-08-05T05:13:06.009Z,73.45
2022-08-05T05:15:57.634Z,72.32
2022-08-05T05:19:36.501Z,71.02
2022-08-05T05:22:44.286Z,69.97
2022-08-05T05:25:41.077Z,68.93
2022-08-05T05:28:28.227Z,68.33
2022-08-05T05:31:18.531Z,66.46
2022-08-05T05:34:05.250Z,65.64
2022-08-05T05:36:51.769Z,64.84
2022-08-05T05:39:38.661Z,64.83
2022-08-05T05:42:28.820Z,63.69
2022-08-05T05:45:16.304Z,63.71
2022-08-05T05:48:06.371Z,63.57
2022-08-05T05:50:54.465Z,62.17
2022-08-05T05:53:54.310Z,62.23
2022-08-05T05:56:45.293Z,61.32
2022-08-05T05:59:33.407Z,61.04
2022-08-05T06:02:32.797Z,61.04
2022-08-05T06:05:23.741Z,60.66
2022-08-05T06:08:10.863Z,60.52
2022-08-05T06:10:56.872Z,60.22
2022-08-05T06:13:53.947Z,59.86
2022-08-05T06:16:39.998Z,59.77
2022-08-05T06:19:34.910Z,59.75
2022-08-05T06:22:35.095Z,59.38
2022-08-05T06:25:59.173Z,59.75
2022-08-05T06:28:27.422Z,60.10
2022-08-05T06:31:17.882Z,59.94
2022-08-05T06:34:09.145Z,60.13
2022-08-05T06:36:58.115Z,59.09
2022-08-05T06:39:44.465Z,59.92
2022-08-05T06:42:30.471Z,59.21
2022-08-05T06:45:21.176Z,58.98
2022-08-05T06:48:53.009Z,58.03
2022-08-05T06:51:30.756Z,57.26
2022-08-05T06:54:19.119Z,56.91
2022-08-05T06:57:14.055Z,57.29
2022-08-05T07:00:12.032Z,55.38
2022-08-05T07:02:59.514Z,55.03
2022-08-05T07:05:47.298Z,54.63
2022-08-05T07:08:33.561Z,56.44
2022-08-05T07:11:22.529Z,54.71
2022-08-05T07:14:32.244Z,53.56
2022-08-05T07:17:59.724Z,53.73
2022-08-05T07:20:37.199Z,54.67
2022-08-05T07:23:30.204Z,54.31
2022-08-05T07:26:22.608Z,53.89
2022-08-05T07:29:11.464Z,52.01
2022-08-05T07:31:59.748Z,51.67
2022-08-05T07:34:50.229Z,51.97
2022-08-05T07:37:44.701Z,51.63
2022-08-05T07:40:33.715Z,52.32
2022-08-05T07:43:21.453Z,52.38
2022-08-05T07:46:07.175Z,51.88
2022-08-05T07:49:14.233Z,52.38
2022-08-05T07:52:00.992Z,48.14
2022-08-05T07:54:49.340Z,49.12
2022-08-05T07:57:56.229Z,48.37
2022-08-05T08:00:42.639Z,49.75
2022-08-05T08:03:44.365Z,48.82
2022-08-05T08:06:32.770Z,48.14
2022-08-05T08:09:18.217Z,47.92
2022-08-05T08:12:19.967Z,47.73
2022-08-05T08:15:15.242Z,46.51
2022-08-05T08:18:01.864Z,46.22
2022-08-05T08:21:02.963Z,47.52
2022-08-05T08:24:01.502Z,46.38
2022-08-05T08:26:50.948Z,45.41
2022-08-05T08:30:04.159Z,45.21
2022-08-05T08:32:43.838Z,45.19
2022-08-05T08:35:35.007Z,43.48
2022-08-05T08:38:35.499Z,44.36
2022-08-05T08:41:26.136Z,45.34
2022-08-05T08:45:16.308Z,45.34
2022-08-05T08:48:05.879Z,43.87
2022-08-05T08:51:03.772Z,43.94
2022-08-05T08:53:54.731Z,44.17
2022-08-05T08:56:47.773Z,42.91
2022-08-05T08:59:36.561Z,43.58
2022-08-05T09:02:26.904Z,44.37
2022-08-05T09:05:16.359Z,43.26
2022-08-05T09:08:04.174Z,43.44
2022-08-05T09:10:51.870Z,44.51
2022-08-05T09:14:00.864Z,43.89
2022-08-05T09:16:48.972Z,44.24
2022-08-05T09:19:36.596Z,46.16
2022-08-05T09:23:05.525Z,44.43
2022-08-05T09:26:21.147Z,44.04
2022-08-05T09:29:09.175Z,44.74
2022-08-05T09:32:41.756Z,45.50
2022-08-05T09:35:26.612Z,45.98
2022-08-05T09:38:18.364Z,44.90
2022-08-05T09:41:16.092Z,44.27
2022-08-05T09:44:02.117Z,44.41
2022-08-05T09:46:51.644Z,44.76
2022-08-05T09:50:02.316Z,44.04
2022-08-05T09:52:57.680Z,44.34
2022-08-05T09:55:56.421Z,45.66
2022-08-05T09:59:06.182Z,45.29
2022-08-05T10:01:57.992Z,46.00
2022-08-05T10:04:45.486Z,46.47
2022-08-05T10:08:35.255Z,47.03
2022-08-05T10:11:15.042Z,46.80
2022-08-05T10:14:22.649Z,45.79
2022-08-05T10:17:37.875Z,45.55
2022-08-05T10:20:21.901Z,46.03
2022-08-05T10:23:34.062Z,44.73
2022-08-05T10:26:16.476Z,44.68
2022-08-05T10:29:02.885Z,44.24
2022-08-05T10:32:54.349Z,44.88
2022-08-05T10:35:01.079Z,44.75
2022-08-05T10:37:48.041Z,45.35
2022-08-05T10:40:43.479Z,44.55
2022-08-05T10:43:46.382Z,44.78
2022-08-05T10:46:46.046Z,44.28
2022-08-05T10:50:32.496Z,44.46
2022-08-05T10:53:06.929Z,44.82
2022-08-05T10:56:21.058Z,44.51
2022-08-05T11:00:01.299Z,45.40
2022-08-05T11:02:38.158Z,44.61
2022-08-05T11:05:29.001Z,44.94
2022-08-05T11:08:33.932Z,43.69
2022-08-05T11:11:42.066Z,44.10
2022-08-05T11:17:59.261Z,44.38
2022-08-05T11:20:51.419Z,46.15
2022-08-05T11:24:05.689Z,43.55
2022-08-05T11:27:51.491Z,43.92
2022-08-05T11:30:58.326Z,43.99
2022-08-05T11:33:47.910Z,43.25
2022-08-05T11:36:52.979Z,42.14
2022-08-05T11:40:00.700Z,43.68
2022-08-05T11:42:50.396Z,43.40
2022-08-05T11:46:27.133Z,42.81
2022-08-05T11:48:55.110Z,44.02
2022-08-05T11:51:49.762Z,43.55
2022-08-05T11:54:38.361Z,44.25
2022-08-05T11:58:08.610Z,42.54
2022-08-05T12:00:38.989Z,40.97
2022-08-05T12:03:28.966Z,42.27
2022-08-05T12:06:21.191Z,42.75
2022-08-05T12:09:07.748Z,42.10
2022-08-05T12:12:08.666Z,42.88
2022-08-05T12:14:58.316Z,42.48
2022-08-05T12:18:10.077Z,42.65
2022-08-05T12:20:53.365Z,42.10
2022-08-05T12:23:43.130Z,41.96
2022-08-05T12:26:48.118Z,41.57
2022-08-05T12:29:38.029Z,42.01
2022-08-05T12:32:25.950Z,42.67
2022-08-05T12:35:16.928Z,42.58
2022-08-05T12:38:10.988Z,43.37
2022-08-05T12:40:57.582Z,42.46
2022-08-05T12:43:57.643Z,40.80
2022-08-05T12:46:53.384Z,41.43
2022-08-05T12:50:02.319Z,43.20
2022-08-05T12:52:59.958Z,43.02
2022-08-05T12:55:47.991Z,42.12
2022-08-05T12:58:49.717Z,41.40
2022-08-05T13:02:02.673Z,43.12
2022-08-05T13:04:52.555Z,43.45
2022-08-05T13:07:59.517Z,42.27
2022-08-05T13:10:50.510Z,41.95
2022-08-05T13:14:04.539Z,41.48
2022-08-05T13:16:56.562Z,39.97
2022-08-05T13:19:58.380Z,40.72
2022-08-05T13:22:53.034Z,40.45
2022-08-05T13:25:52.207Z,43.21
2022-08-05T13:28:46.423Z,42.71
2022-08-05T13:32:04.171Z,42.47
2022-08-05T13:34:40.910Z,43.41
2022-08-05T13:37:34.460Z,44.02
2022-08-05T13:40:35.577Z,44.04
2022-08-05T13:43:43.310Z,44.91
2022-08-05T13:46:43.873Z,42.97
2022-08-05T13:49:36.153Z,43.69
2022-08-05T13:52:29.944Z,43.28
2022-08-05T13:55:41.774Z,42.57
2022-08-05T13:58:30.531Z,41.87
2022-08-05T14:01:17.477Z,42.08
2022-08-05T14:04:22.219Z,43.46
2022-08-05T14:07:57.062Z,43.80
2022-08-05T14:10:28.929Z,45.27
2022-08-05T14:13:17.031Z,44.87
2022-08-05T14:16:11.197Z,45.21
2022-08-05T14:18:57.205Z,47.00
2022-08-05T14:22:09.122Z,48.17
2022-08-05T14:24:57.458Z,46.07
2022-08-05T14:27:47.349Z,45.31
2022-08-05T14:30:33.746Z,44.36
2022-08-05T14:33:22.879Z,44.60
2022-08-05T14:36:09.404Z,43.69
2022-08-05T14:38:57.040Z,43.09
2022-08-05T14:42:08.739Z,43.68
2022-08-05T14:44:50.768Z,43.69
2022-08-05T14:48:02.890Z,44.05
2022-08-05T14:50:43.441Z,43.44
2022-08-05T14:53:30.651Z,44.06
2022-08-05T14:56:22.772Z,44.47
2022-08-05T14:59:09.111Z,44.68
2022-08-05T15:01:55.454Z,45.86
2022-08-05T15:04:43.887Z,46.32
2022-08-05T15:08:12.251Z,45.68
2022-08-05T15:10:37.686Z,45.79
2022-08-05T15:13:24.329Z,46.33
2022-08-05T15:16:30.341Z,45.08
2022-08-05T15:19:23.722Z,44.70
2022-08-05T15:22:10.400Z,44.13
2022-08-05T15:24:59.193Z,45.02
2022-08-05T15:27:52.116Z,45.17
2022-08-05T15:30:38.371Z,45.98
2022-08-05T15:34:04.588Z,46.13
2022-08-05T15:36:32.387Z,46.18
2022-08-05T15:41:00.503Z,45.99
2022-08-05T15:42:54.786Z,46.14
2022-08-05T15:45:38.131Z,45.42
2022-08-05T15:48:25.038Z,45.88
2022-08-05T15:51:11.324Z,45.90
2022-08-05T15:53:57.608Z,45.10
2022-08-05T15:56:45.414Z,45.35
2022-08-05T15:59:32.128Z,45.21
2022-08-05T16:02:28.689Z,44.97
2022-08-05T16:05:15.023Z,44.51
2022-08-05T16:08:01.335Z,44.40
2022-08-05T16:10:46.871Z,45.02
2022-08-05T16:13:34.799Z,45.56
2022-08-05T16:16:25.401Z,45.66
2022-08-05T16:19:12.085Z,45.90
2022-08-05T16:22:11.236Z,46.99
2022-08-05T16:25:00.815Z,46.61
2022-08-05T16:28:04.852Z,47.15
2022-08-05T16:30:53.072Z,47.93
2022-08-05T16:33:41.525Z,48.42
2022-08-05T16:36:27.838Z,48.43
2022-08-05T16:39:13.891Z,47.91
2022-08-05T16:42:13.972Z,47.85
2022-08-05T16:45:05.893Z,48.00
2022-08-05T16:48:10.407Z,48.15
2022-08-05T16:50:56.756Z,49.82
2022-08-05T16:54:03.263Z,50.63
2022-08-05T16:56:52.223Z,51.50
2022-08-05T17:00:01.434Z,51.88
2022-08-05T17:02:46.012Z,52.31
2022-08-05T17:05:32.499Z,52.04
2022-08-05T17:08:36.251Z,52.49
2022-08-05T17:11:30.893Z,53.00
2022-08-05T17:14:37.386Z,53.18
2022-08-05T17:17:24.305Z,53.35
2022-08-05T17:20:28.793Z,53.79
2022-08-05T17:24:03.450Z,54.05
2022-08-05T17:26:21.126Z,54.36
2022-08-05T17:29:10.089Z,54.38
2022-08-05T17:31:58.167Z,54.83
2022-08-05T17:34:48.077Z,54.96
2022-08-05T17:37:41.523Z,56.10
2022-08-05T17:40:31.632Z,56.33
2022-08-05T17:43:16.950Z,57.00
2022-08-05T17:46:03.451Z,57.49
2022-08-05T17:48:50.373Z,57.29
2022-08-05T17:51:40.444Z,57.80
2022-08-05T17:54:26.517Z,58.20
2022-08-05T17:57:12.516Z,57.96
2022-08-05T18:00:04.747Z,58.22
2022-08-05T18:02:54.541Z,58.34
2022-08-05T18:05:40.278Z,58.98
2022-08-05T18:08:26.260Z,58.98
2022-08-05T18:11:24.817Z,59.47
2022-08-05T18:14:20.503Z,59.93
2022-08-05T18:17:08.336Z,59.90
2022-08-05T18:20:15.663Z,60.38
2022-08-05T18:23:09.534Z,60.08
2022-08-05T18:25:59.520Z,60.45
2022-08-05T18:28:46.431Z,60.25
2022-08-05T18:31:33.027Z,60.28
2022-08-05T18:34:21.922Z,60.34
2022-08-05T18:37:12.507Z,60.68
2022-08-05T18:41:51.185Z,60.65
2022-08-05T18:43:05.227Z,60.88
2022-08-05T18:45:54.729Z,61.10
2022-08-05T18:48:42.121Z,60.97
2022-08-05T18:52:06.400Z,61.13
2022-08-05T18:54:51.943Z,61.21
2022-08-05T18:57:43.642Z,60.65
2022-08-05T19:00:39.570Z,60.90
2022-08-05T19:03:53.309Z,61.43
2022-08-05T19:06:37.429Z,61.91
2022-08-05T19:09:39.379Z,61.79
2022-08-05T19:12:25.901Z,62.04
2022-08-05T19:15:57.788Z,62.44
2022-08-05T19:18:20.752Z,62.73
2022-08-05T19:21:08.351Z,62.95
2022-08-05T19:24:06.997Z,63.51
2022-08-05T19:26:55.613Z,63.74
2022-08-05T19:29:42.841Z,64.13
2022-08-05T19:32:29.383Z,64.30
2022-08-05T19:35:16.360Z,64.87
2022-08-05T19:38:06.247Z,65.37
2022-08-05T19:40:58.463Z,65.15
2022-08-05T19:44:06.192Z,65.74
2022-08-05T19:46:51.707Z,65.43
2022-08-05T19:49:38.664Z,65.05
2022-08-05T19:52:40.552Z,65.01
2022-08-05T19:56:13.767Z,64.41
2022-08-05T19:58:33.055Z,64.49
2022-08-05T20:01:41.123Z,64.74
2022-08-05T20:04:30.335Z,64.74
2022-08-05T20:07:46.886Z,64.79
2022-08-05T20:10:24.478Z,65.00
2022-08-05T20:13:12.289Z,65.16
2022-08-05T20:16:01.899Z,64.82
2022-08-05T20:18:55.348Z,64.65
2022-08-05T20:21:43.429Z,64.87
2022-08-05T20:24:32.501Z,64.86
2022-08-05T20:27:18.402Z,65.22
2022-08-05T20:30:09.628Z,65.18
2022-08-05T20:32:55.844Z,65.20
2022-08-05T20:35:45.269Z,65.30
2022-08-05T20:38:35.623Z,65.05
2022-08-05T20:41:24.270Z,65.20
2022-08-05T20:44:19.387Z,65.86
2022-08-05T20:47:17.354Z,66.17
2022-08-05T20:50:07.462Z,65.88
2022-08-05T20:52:54.078Z,65.88
2022-08-05T20:55:56.291Z,65.71
2022-08-05T20:58:45.552Z,66.36
2022-08-05T21:01:37.203Z,66.49
2022-08-05T21:04:24.310Z,66.28
2022-08-05T21:07:13.962Z,65.89
2022-08-05T21:09:59.288Z,66.12
2022-08-05T21:13:08.756Z,66.29
2022-08-05T21:15:51.511Z,66.29
2022-08-05T21:18:37.704Z,66.38
2022-08-05T21:21:24.452Z,66.44
2022-08-05T21:24:12.612Z,66.61
2022-08-05T21:26:59.015Z,66.51
2022-08-05T21:29:48.472Z,66.49
2022-08-05T21:32:36.652Z,66.32
2022-08-05T21:35:30.405Z,66.17
2022-08-05T21:38:29.986Z,65.91
2022-08-05T21:41:15.778Z,65.99
2022-08-05T21:44:06.467Z,66.18
2022-08-05T21:46:52.148Z,66.18
2022-08-05T21:49:58.908Z,66.20
2022-08-05T21:52:45.913Z,66.57
2022-08-05T21:56:04.270Z,66.99
2022-08-05T21:58:56.929Z,67.28
2022-08-05T22:01:44.865Z,67.36
2022-08-05T22:04:32.446Z,67.52
2022-08-05T22:07:18.323Z,68.03
2022-08-05T22:10:26.731Z,67.45
2022-08-05T22:14:34.118Z,67.50
2022-08-05T22:16:40.484Z,67.47
2022-08-05T22:20:01.157Z,67.47
2022-08-05T22:22:31.246Z,67.41
2022-08-05T22:26:10.246Z,67.65
2022-08-05T22:28:41.838Z,68.66
2022-08-05T22:31:30.194Z,68.53
2022-08-05T22:34:20.204Z,68.51
2022-08-05T22:37:14.076Z,68.11
2022-08-05T22:39:59.824Z,68.41
2022-08-05T22:42:53.256Z,68.73
2022-08-05T22:45:43.841Z,68.74
2022-08-05T22:48:30.696Z,68.64
2022-08-05T22:51:22.683Z,68.50
2022-08-05T22:54:09.115Z,68.72
2022-08-05T22:56:54.528Z,68.75
2022-08-05T22:59:46.086Z,69.06
2022-08-05T23:02:39.874Z,69.44
2022-08-05T23:05:35.944Z,69.73
2022-08-05T23:08:22.635Z,69.82
2022-08-05T23:11:08.679Z,70.50
2022-08-05T23:13:54.862Z,70.62
2022-08-05T23:16:59.282Z,70.92
2022-08-05T23:19:50.858Z,71.21
2022-08-05T23:22:42.106Z,71.22
2022-08-05T23:25:52.671Z,71.45
2022-08-05T23:28:33.373Z,71.48
2022-08-05T23:31:18.656Z,71.25
2022-08-05T23:34:06.768Z,71.12
2022-08-05T23:36:53.028Z,70.90
2022-08-05T23:39:53.611Z,70.95
2022-08-05T23:42:39.577Z,70.52
2022-08-05T23:45:25.456Z,70.38
2022-08-05T23:48:11.691Z,70.30
2022-08-05T23:50:57.113Z,70.36
2022-08-05T23:53:46.505Z,70.00
2022-08-05T23:56:32.207Z,70.00
2022-08-05T23:59:17.693Z,69.67
